createdAt,value
2022-10-08T00:01:31.629Z,4.13
2022-10-08T00:03:59.795Z,4.67
2022-10-08T00:06:30.007Z,4.70
2022-10-08T00:09:00.345Z,5.90
2022-10-08T00:11:30.863Z,4.93
2022-10-08T00:14:02.434Z,5.67
2022-10-08T00:16:32.270Z,4.60
2022-10-08T00:19:02.432Z,4.00
2022-10-08T00:21:32.559Z,4.80
2022-10-08T00:24:01.431Z,5.03
2022-10-08T00:26:31.392Z,4.07
2022-10-08T00:29:04.189Z,4.10
2022-10-08T00:31:33.999Z,4.10
2022-10-08T00:34:04.299Z,4.07
2022-10-08T00:36:33.826Z,4.03
2022-10-08T00:39:03.749Z,3.87
2022-10-08T00:41:35.016Z,5.07
2022-10-08T00:44:24.580Z,5.80
2022-10-08T00:46:58.338Z,4.17
2022-10-08T00:49:26.690Z,4.63
2022-10-08T00:51:57.753Z,6.00
2022-10-08T00:54:28.002Z,5.13
2022-10-08T00:56:56.626Z,4.07
2022-10-08T00:59:26.346Z,3.87
2022-10-08T01:01:56.461Z,4.87
2022-10-08T01:04:25.186Z,3.80
2022-10-08T01:06:59.275Z,6.43
2022-10-08T01:09:32.772Z,3.17
2022-10-08T01:12:07.914Z,3.57
2022-10-08T01:14:46.013Z,4.33
2022-10-08T01:17:23.380Z,5.37
2022-10-08T01:20:22.660Z,4.50
2022-10-08T01:23:09.948Z,7.90
2022-10-08T01:25:49.294Z,5.70
2022-10-08T01:28:25.492Z,4.37
2022-10-08T01:30:59.003Z,4.67
2022-10-08T01:33:33.862Z,5.37
2022-10-08T01:36:04.386Z,7.30
2022-10-08T01:38:34.791Z,4.83
2022-10-08T01:41:07.112Z,3.20
2022-10-08T01:43:40.930Z,5.70
2022-10-08T01:46:14.428Z,4.70
2022-10-08T01:48:45.160Z,4.43
2022-10-08T01:51:18.662Z,5.43
2022-10-08T01:53:49.984Z,4.33
2022-10-08T01:56:23.172Z,5.17
2022-10-08T01:58:56.691Z,4.90
2022-10-08T02:01:34.043Z,4.27
2022-10-08T02:04:19.280Z,3.67
2022-10-08T02:06:54.619Z,3.70
2022-10-08T02:09:23.731Z,4.93
2022-10-08T02:11:52.338Z,3.50
2022-10-08T02:14:25.980Z,4.03
2022-10-08T02:16:58.079Z,5.63
2022-10-08T02:19:33.835Z,4.23
2022-10-08T02:22:05.459Z,6.60
2022-10-08T02:24:38.953Z,6.13
2022-10-08T02:27:09.893Z,4.87
2022-10-08T02:29:44.471Z,6.70
2022-10-08T02:32:19.824Z,6.80
2022-10-08T02:34:54.239Z,6.10
2022-10-08T02:37:26.067Z,6.33
2022-10-08T02:40:00.806Z,5.33
2022-10-08T02:42:31.618Z,8.03
2022-10-08T02:45:07.500Z,6.80
2022-10-08T02:47:38.756Z,4.20
2022-10-08T02:50:12.666Z,5.50
2022-10-08T02:52:44.636Z,7.10
2022-10-08T02:55:22.006Z,5.50
2022-10-08T02:57:56.194Z,3.87
2022-10-08T03:00:26.894Z,4.57
2022-10-08T03:03:02.014Z,6.30
2022-10-08T03:05:30.377Z,3.97
2022-10-08T03:08:00.269Z,5.00
2022-10-08T03:10:30.563Z,5.17
2022-10-08T03:13:02.018Z,4.73
2022-10-08T03:15:33.161Z,4.53
2022-10-08T03:18:03.450Z,5.50
2022-10-08T03:20:32.835Z,4.83
2022-10-08T03:23:02.767Z,4.60
2022-10-08T03:25:30.667Z,4.53
2022-10-08T03:27:58.756Z,5.27
2022-10-08T03:30:26.899Z,4.67
2022-10-08T03:32:56.204Z,5.17
2022-10-08T03:35:24.382Z,4.57
2022-10-08T03:37:53.718Z,4.07
2022-10-08T03:40:21.916Z,4.67
2022-10-08T03:42:50.107Z,8.37
2022-10-08T03:45:22.502Z,7.27
2022-10-08T03:47:53.388Z,4.73
2022-10-08T03:50:23.097Z,6.63
2022-10-08T03:52:51.166Z,4.93
2022-10-08T03:55:19.190Z,5.07
2022-10-08T03:57:47.027Z,5.17
2022-10-08T04:00:15.286Z,3.07
2022-10-08T04:02:43.327Z,5.20
2022-10-08T04:05:11.284Z,6.23
2022-10-08T04:07:40.777Z,3.90
2022-10-08T04:10:09.947Z,5.37
2022-10-08T04:12:38.876Z,5.17
2022-10-08T04:15:08.680Z,5.43
2022-10-08T04:17:36.450Z,5.67
2022-10-08T04:20:04.971Z,3.93
2022-10-08T04:22:32.736Z,5.40
2022-10-08T04:25:02.455Z,4.67
2022-10-08T04:27:30.672Z,6.37
2022-10-08T04:29:58.587Z,6.53
2022-10-08T04:32:26.495Z,4.80
2022-10-08T04:34:54.573Z,8.13
2022-10-08T04:37:24.856Z,5.87
2022-10-08T04:39:53.044Z,6.17
2022-10-08T04:42:22.561Z,6.27
2022-10-08T04:44:50.471Z,7.27
2022-10-08T04:47:19.078Z,4.03
2022-10-08T04:49:46.900Z,5.63
2022-10-08T04:52:17.010Z,5.47
2022-10-08T04:54:45.654Z,6.70
2022-10-08T04:57:15.090Z,4.93
2022-10-08T05:00:05.778Z,6.97
2022-10-08T05:02:32.385Z,6.20
2022-10-08T05:05:01.108Z,5.97
2022-10-08T05:07:29.694Z,5.37
2022-10-08T05:09:57.479Z,13.43
2022-10-08T05:12:25.315Z,10.90
2022-10-08T05:14:55.691Z,9.03
2022-10-08T05:17:23.827Z,7.27
2022-10-08T05:19:51.911Z,6.17
2022-10-08T05:22:19.936Z,6.73
2022-10-08T05:24:48.172Z,6.17
2022-10-08T05:27:16.170Z,6.47
2022-10-08T05:29:43.920Z,6.53
2022-10-08T05:32:14.605Z,7.97
2022-10-08T05:34:42.520Z,6.17
2022-10-08T05:37:10.634Z,5.33
2022-10-08T05:39:38.531Z,7.07
2022-10-08T05:42:06.813Z,6.57
2022-10-08T05:44:37.573Z,5.93
2022-10-08T05:47:06.231Z,8.43
2022-10-08T05:49:36.866Z,6.77
2022-10-08T05:52:04.794Z,7.40
2022-10-08T05:54:33.787Z,6.07
2022-10-08T05:57:01.528Z,5.53
2022-10-08T05:59:29.466Z,7.20
2022-10-08T06:01:57.362Z,5.90
2022-10-08T06:04:25.489Z,6.23
2022-10-08T06:06:56.478Z,6.77
2022-10-08T06:09:24.661Z,7.50
2022-10-08T06:11:53.091Z,6.57
2022-10-08T06:14:21.532Z,6.97
2022-10-08T06:16:49.665Z,6.17
2022-10-08T06:19:17.470Z,7.90
2022-10-08T06:21:45.447Z,5.07
2022-10-08T06:24:15.178Z,7.60
2022-10-08T06:26:44.488Z,6.83
2022-10-08T06:29:15.595Z,8.97
2022-10-08T06:31:43.966Z,9.30
2022-10-08T06:34:12.236Z,5.87
2022-10-08T06:36:41.436Z,6.43
2022-10-08T06:39:12.437Z,5.90
2022-10-08T06:41:42.911Z,7.37
2022-10-08T06:44:13.566Z,6.77
2022-10-08T06:46:41.584Z,7.23
2022-10-08T06:49:11.007Z,8.60
2022-10-08T06:51:39.400Z,7.70
2022-10-08T06:54:08.641Z,8.50
2022-10-08T06:56:37.476Z,9.47
2022-10-08T06:59:07.986Z,9.80
2022-10-08T07:01:36.432Z,10.37
2022-10-08T07:04:07.024Z,11.30
2022-10-08T07:06:35.435Z,12.27
2022-10-08T07:09:04.386Z,11.87
2022-10-08T07:11:33.594Z,13.30
2022-10-08T07:14:01.884Z,13.93
2022-10-08T07:16:31.440Z,13.40
2022-10-08T07:18:59.607Z,17.00
2022-10-08T07:21:29.657Z,14.97
2022-10-08T07:23:57.779Z,15.77
2022-10-08T07:26:28.276Z,16.20
2022-10-08T07:28:59.396Z,15.33
2022-10-08T07:31:29.810Z,18.73
2022-10-08T07:34:00.488Z,16.43
2022-10-08T07:36:29.978Z,18.20
2022-10-08T07:38:59.221Z,19.47
2022-10-08T07:41:27.599Z,18.53
2022-10-08T07:43:58.746Z,18.07
2022-10-08T07:46:27.363Z,17.33
2022-10-08T07:48:56.847Z,17.60
2022-10-08T07:51:27.257Z,16.90
2022-10-08T07:53:58.809Z,16.70
2022-10-08T07:56:31.394Z,15.90
2022-10-08T07:59:00.146Z,15.60
2022-10-08T08:01:30.749Z,14.53
2022-10-08T08:04:02.016Z,14.80
2022-10-08T08:06:33.244Z,13.47
2022-10-08T08:09:02.469Z,12.93
2022-10-08T08:11:30.741Z,14.87
2022-10-08T08:13:58.569Z,12.00
2022-10-08T08:16:28.171Z,13.47
2022-10-08T08:18:58.008Z,12.33
2022-10-08T08:21:28.221Z,12.73
2022-10-08T08:23:59.480Z,11.93
2022-10-08T08:26:29.977Z,12.30
2022-10-08T08:29:00.335Z,11.57
2022-10-08T08:31:30.388Z,10.60
2022-10-08T08:34:00.651Z,10.27
2022-10-08T08:36:31.052Z,12.43
2022-10-08T08:39:01.698Z,10.13
2022-10-08T08:41:44.243Z,11.73
2022-10-08T08:44:15.059Z,8.67
2022-10-08T08:46:49.687Z,10.07
2022-10-08T08:49:22.655Z,8.10
2022-10-08T08:51:52.221Z,7.30
2022-10-08T08:54:24.812Z,10.23
2022-10-08T08:56:53.501Z,8.53
2022-10-08T08:59:30.327Z,7.17
2022-10-08T09:02:00.963Z,7.13
2022-10-08T09:04:40.608Z,8.67
2022-10-08T09:07:15.868Z,6.03
2022-10-08T09:09:48.274Z,6.43
2022-10-08T09:12:21.191Z,5.87
2022-10-08T09:14:54.500Z,6.43
2022-10-08T09:17:30.054Z,5.75
2022-10-08T09:19:58.754Z,5.80
2022-10-08T09:22:29.355Z,5.93
2022-10-08T09:25:01.235Z,4.97
2022-10-08T09:27:44.502Z,4.30
2022-10-08T09:30:36.121Z,7.10
2022-10-08T09:33:07.005Z,5.50
2022-10-08T09:35:36.161Z,5.23
2022-10-08T09:38:06.246Z,4.80
2022-10-08T09:40:36.054Z,6.07
2022-10-08T09:43:18.016Z,7.47
2022-10-08T09:45:47.402Z,4.80
2022-10-08T09:48:24.330Z,6.37
2022-10-08T09:50:55.479Z,4.47
2022-10-08T09:53:26.075Z,5.63
2022-10-08T09:55:59.907Z,5.27
2022-10-08T09:58:31.508Z,7.67
2022-10-08T10:01:03.794Z,6.03
2022-10-08T10:03:32.431Z,4.67
2022-10-08T10:06:01.592Z,3.23
2022-10-08T10:08:50.954Z,4.13
2022-10-08T10:11:28.853Z,3.87
2022-10-08T10:14:00.623Z,6.93
2022-10-08T10:16:36.430Z,5.20
2022-10-08T10:19:09.679Z,6.67
2022-10-08T10:21:43.355Z,7.23
2022-10-08T10:24:29.566Z,10.70
2022-10-08T10:27:05.565Z,6.07
2022-10-08T10:29:42.387Z,4.87
2022-10-08T10:32:18.718Z,3.30
2022-10-08T10:34:58.472Z,2.53
2022-10-08T10:37:33.478Z,4.90
2022-10-08T10:40:22.874Z,4.73
2022-10-08T10:42:59.947Z,2.87
2022-10-08T10:45:35.045Z,3.30
2022-10-08T10:48:05.396Z,5.07
2022-10-08T10:50:40.109Z,5.43
2022-10-08T10:53:17.421Z,2.23
2022-10-08T10:55:54.679Z,5.03
2022-10-08T10:58:37.677Z,4.83
2022-10-08T11:01:17.029Z,2.83
2022-10-08T11:03:56.194Z,4.13
2022-10-08T11:06:50.609Z,7.10
2022-10-08T11:09:28.878Z,7.77
2022-10-08T11:12:02.795Z,2.77
2022-10-08T11:14:48.441Z,2.87
2022-10-08T11:17:36.348Z,2.80
2022-10-08T11:20:37.926Z,7.70
2022-10-08T11:23:16.334Z,5.80
2022-10-08T11:26:15.401Z,2.70
2022-10-08T11:28:50.394Z,2.80
2022-10-08T11:31:29.288Z,3.20
2022-10-08T11:33:58.066Z,2.97
2022-10-08T11:36:36.773Z,2.43
2022-10-08T11:39:11.604Z,3.67
2022-10-08T11:41:47.367Z,3.73
2022-10-08T11:44:16.407Z,3.93
2022-10-08T11:46:47.781Z,5.10
2022-10-08T11:49:58.710Z,3.60
2022-10-08T11:52:30.928Z,4.97
2022-10-08T11:55:01.118Z,5.83
2022-10-08T11:58:07.219Z,3.37
2022-10-08T12:00:36.180Z,3.53
2022-10-08T12:03:07.338Z,4.10
2022-10-08T12:05:50.037Z,5.23
2022-10-08T12:08:52.924Z,3.87
2022-10-08T12:11:52.863Z,1.43
2022-10-08T12:14:47.758Z,2.87
2022-10-08T12:17:16.534Z,1.23
2022-10-08T12:20:22.893Z,2.37
2022-10-08T12:23:02.569Z,2.17
2022-10-08T12:25:37.532Z,3.53
2022-10-08T12:28:46.100Z,1.30
2022-10-08T12:31:22.692Z,1.63
2022-10-08T12:33:59.303Z,2.50
2022-10-08T12:36:48.646Z,1.20
2022-10-08T12:39:23.602Z,3.13
2022-10-08T12:42:00.356Z,2.13
2022-10-08T12:44:41.440Z,4.53
2022-10-08T12:47:22.510Z,1.87
2022-10-08T12:49:56.900Z,3.20
2022-10-08T12:52:27.547Z,1.57
2022-10-08T12:54:57.199Z,2.97
2022-10-08T12:57:30.308Z,2.93
2022-10-08T13:00:00.048Z,2.07
2022-10-08T13:02:38.415Z,2.57
2022-10-08T13:05:25.433Z,1.70
2022-10-08T13:07:55.584Z,2.47
2022-10-08T13:10:29.635Z,2.10
2022-10-08T13:13:05.541Z,1.57
2022-10-08T13:15:34.509Z,3.13
2022-10-08T13:18:16.085Z,1.30
2022-10-08T13:20:57.031Z,3.63
2022-10-08T13:23:27.700Z,2.03
2022-10-08T13:25:55.576Z,2.67
2022-10-08T13:28:48.480Z,3.13
2022-10-08T13:31:23.264Z,5.67
2022-10-08T13:33:51.828Z,4.20
2022-10-08T13:36:22.745Z,2.10
2022-10-08T13:38:52.548Z,3.93
2022-10-08T13:41:24.260Z,4.43
2022-10-08T13:43:52.315Z,14.10
2022-10-08T13:46:20.204Z,5.70
2022-10-08T13:48:48.180Z,6.50
2022-10-08T13:51:17.254Z,6.30
2022-10-08T13:53:45.922Z,6.37
2022-10-08T13:56:18.244Z,5.70
2022-10-08T13:58:46.367Z,3.13
2022-10-08T14:01:14.195Z,4.63
2022-10-08T14:03:42.199Z,2.90
2022-10-08T14:06:10.191Z,3.83
2022-10-08T14:08:38.792Z,5.77
2022-10-08T14:11:06.844Z,3.40
2022-10-08T14:13:37.362Z,5.50
2022-10-08T14:16:05.502Z,5.00
2022-10-08T14:18:33.457Z,4.37
2022-10-08T14:21:01.592Z,4.30
2022-10-08T14:23:29.629Z,2.87
2022-10-08T14:26:01.933Z,3.10
2022-10-08T14:28:29.805Z,4.43
2022-10-08T14:30:59.532Z,2.77
2022-10-08T14:33:27.364Z,2.40
2022-10-08T14:35:55.375Z,2.37
2022-10-08T14:38:23.735Z,2.73
2022-10-08T14:40:53.156Z,3.97
2022-10-08T14:43:22.382Z,1.33
2022-10-08T14:45:50.651Z,3.03
2022-10-08T14:48:20.433Z,4.90
2022-10-08T14:50:48.374Z,3.33
2022-10-08T14:53:16.453Z,3.90
2022-10-08T14:56:00.841Z,3.93
2022-10-08T14:58:32.295Z,5.60
2022-10-08T15:01:00.225Z,2.60
2022-10-08T15:03:29.738Z,3.57
2022-10-08T15:06:00.031Z,2.17
2022-10-08T15:08:28.817Z,3.17
2022-10-08T15:10:56.646Z,4.33
2022-10-08T15:13:25.001Z,5.17
2022-10-08T15:15:53.284Z,2.53
2022-10-08T15:18:22.000Z,2.17
2022-10-08T15:20:57.008Z,3.33
2022-10-08T15:23:25.413Z,2.10
2022-10-08T15:25:57.763Z,3.27
2022-10-08T15:28:27.947Z,2.20
2022-10-08T15:31:26.110Z,2.40
2022-10-08T15:33:56.202Z,4.20
2022-10-08T15:36:27.315Z,3.43
2022-10-08T15:38:58.120Z,2.53
2022-10-08T15:41:27.056Z,1.67
2022-10-08T15:43:55.446Z,2.90
2022-10-08T15:46:26.179Z,3.53
2022-10-08T15:48:55.472Z,3.53
2022-10-08T15:51:25.469Z,3.23
2022-10-08T15:53:53.582Z,3.03
2022-10-08T15:56:22.547Z,3.00
2022-10-08T15:58:51.568Z,2.93
2022-10-08T16:01:21.427Z,2.37
2022-10-08T16:03:51.009Z,3.67
2022-10-08T16:06:20.355Z,3.80
2022-10-08T16:08:50.143Z,2.43
2022-10-08T16:11:20.281Z,2.43
2022-10-08T16:13:50.126Z,2.53
2022-10-08T16:16:18.939Z,1.60
2022-10-08T16:18:50.919Z,2.40
2022-10-08T16:21:20.365Z,1.80
2022-10-08T16:23:50.468Z,2.40
2022-10-08T16:26:21.867Z,3.13
2022-10-08T16:28:51.603Z,2.93
2022-10-08T16:31:20.374Z,3.20
2022-10-08T16:33:48.963Z,3.77
2022-10-08T16:36:17.142Z,2.47
2022-10-08T16:38:45.084Z,2.27
2022-10-08T16:41:19.144Z,2.37
2022-10-08T16:43:50.171Z,2.80
2022-10-08T16:46:20.394Z,5.23
2022-10-08T16:48:53.122Z,2.53
2022-10-08T16:51:21.056Z,4.70
2022-10-08T16:53:50.199Z,2.97
2022-10-08T16:56:22.069Z,3.37
2022-10-08T16:58:52.389Z,4.50
2022-10-08T17:01:24.008Z,2.90
2022-10-08T17:03:52.640Z,3.60
2022-10-08T17:06:22.492Z,2.57
2022-10-08T17:08:50.933Z,2.40
2022-10-08T17:11:21.569Z,2.60
2022-10-08T17:13:51.105Z,2.17
2022-10-08T17:16:20.620Z,2.57
2022-10-08T17:18:50.936Z,3.93
2022-10-08T17:21:19.334Z,3.57
2022-10-08T17:23:49.783Z,4.47
2022-10-08T17:26:21.184Z,3.37
2022-10-08T17:28:50.282Z,3.07
2022-10-08T17:31:20.962Z,2.50
2022-10-08T17:33:49.598Z,4.43
2022-10-08T17:36:19.886Z,2.03
2022-10-08T17:38:50.356Z,3.60
2022-10-08T17:41:21.624Z,2.80
2022-10-08T17:43:50.836Z,2.83
2022-10-08T17:46:20.720Z,3.90
2022-10-08T17:48:49.599Z,3.03
2022-10-08T17:51:19.930Z,5.03
2022-10-08T17:53:53.006Z,3.37
2022-10-08T17:56:24.290Z,5.47
2022-10-08T17:58:52.387Z,4.60
2022-10-08T18:01:22.200Z,4.70
2022-10-08T18:03:55.584Z,3.33
2022-10-08T18:06:25.663Z,4.80
2022-10-08T18:08:57.980Z,4.60
2022-10-08T18:11:28.811Z,3.00
2022-10-08T18:13:57.382Z,4.20
2022-10-08T18:16:25.848Z,3.60
2022-10-08T18:18:54.225Z,2.20
2022-10-08T18:21:22.530Z,3.57
2022-10-08T18:23:51.295Z,3.63
2022-10-08T18:26:21.018Z,4.20
2022-10-08T18:28:51.832Z,2.70
2022-10-08T18:31:22.012Z,3.23
2022-10-08T18:33:51.871Z,2.70
2022-10-08T18:36:24.781Z,3.57
2022-10-08T18:38:56.695Z,3.00
2022-10-08T18:41:26.618Z,3.67
2022-10-08T18:43:59.180Z,3.33
2022-10-08T18:46:27.455Z,3.03
2022-10-08T18:48:55.612Z,5.20
2022-10-08T18:51:26.916Z,3.13
2022-10-08T18:53:58.130Z,3.30
2022-10-08T18:56:29.052Z,3.43
2022-10-08T18:58:59.219Z,3.67
2022-10-08T19:01:29.021Z,3.50
2022-10-08T19:03:58.681Z,3.50
2022-10-08T19:06:28.792Z,3.03
2022-10-08T19:08:57.625Z,3.97
2022-10-08T19:11:27.584Z,3.43
2022-10-08T19:13:59.583Z,5.47
2022-10-08T19:16:30.070Z,4.87
2022-10-08T19:18:59.647Z,4.67
2022-10-08T19:21:27.926Z,5.13
2022-10-08T19:23:58.789Z,3.87
2022-10-08T19:26:28.180Z,4.37
2022-10-08T19:28:56.413Z,4.20
2022-10-08T19:31:25.781Z,4.43
2022-10-08T19:33:57.417Z,6.10
2022-10-08T19:36:27.603Z,4.57
2022-10-08T19:38:56.552Z,3.70
2022-10-08T19:41:25.111Z,3.70
2022-10-08T19:43:53.668Z,4.63
2022-10-08T19:46:22.269Z,5.93
2022-10-08T19:48:50.626Z,2.90
2022-10-08T19:51:21.580Z,4.23
2022-10-08T19:53:50.452Z,6.20
2022-10-08T19:56:19.522Z,3.60
2022-10-08T19:58:49.519Z,3.40
2022-10-08T20:01:19.207Z,3.90
2022-10-08T20:03:47.534Z,4.40
2022-10-08T20:06:24.242Z,4.47
2022-10-08T20:08:56.048Z,3.50
2022-10-08T20:11:25.823Z,4.27
2022-10-08T20:13:54.634Z,3.90
2022-10-08T20:16:25.192Z,3.27
2022-10-08T20:18:54.896Z,2.87
2022-10-08T20:21:23.706Z,3.03
2022-10-08T20:23:51.935Z,2.70
2022-10-08T20:26:23.336Z,3.83
2022-10-08T20:28:53.976Z,3.37
2022-10-08T20:31:23.596Z,3.43
2022-10-08T20:33:57.573Z,3.40
2022-10-08T20:36:25.741Z,2.53
2022-10-08T20:38:54.119Z,3.43
2022-10-08T20:41:29.601Z,3.27
2022-10-08T20:44:02.451Z,2.40
2022-10-08T20:46:30.663Z,2.60
2022-10-08T20:48:59.934Z,3.20
2022-10-08T20:51:29.444Z,5.43
2022-10-08T20:54:04.353Z,3.10
2022-10-08T20:56:39.747Z,3.13
2022-10-08T20:59:08.832Z,4.03
2022-10-08T21:01:39.938Z,4.07
2022-10-08T21:04:09.094Z,2.90
2022-10-08T21:06:39.089Z,3.87
2022-10-08T21:09:07.132Z,2.87
2022-10-08T21:11:38.122Z,3.50
2022-10-08T21:14:07.739Z,4.07
2022-10-08T21:16:38.045Z,3.10
2022-10-08T21:19:07.559Z,4.37
2022-10-08T21:21:36.425Z,3.13
2022-10-08T21:24:06.472Z,3.33
2022-10-08T21:26:37.488Z,3.37
2022-10-08T21:29:07.086Z,4.20
2022-10-08T21:31:38.022Z,2.60
2022-10-08T21:34:06.517Z,3.60
2022-10-08T21:36:35.818Z,3.07
2022-10-08T21:39:05.181Z,5.23
2022-10-08T21:41:35.995Z,4.27
2022-10-08T21:44:06.882Z,3.97
2022-10-08T21:46:36.762Z,3.63
2022-10-08T21:49:06.773Z,3.70
2022-10-08T21:51:35.750Z,3.63
2022-10-08T21:54:06.570Z,3.47
2022-10-08T21:56:37.011Z,3.20
2022-10-08T21:59:07.878Z,5.07
2022-10-08T22:01:38.172Z,3.37
2022-10-08T22:04:08.541Z,4.43
2022-10-08T22:06:38.293Z,3.70
2022-10-08T22:09:08.054Z,4.27
2022-10-08T22:11:37.132Z,4.13
2022-10-08T22:14:06.885Z,3.83
2022-10-08T22:16:35.754Z,3.40
2022-10-08T22:19:04.028Z,3.97
2022-10-08T22:21:32.092Z,4.83
2022-10-08T22:24:01.736Z,3.73
2022-10-08T22:26:31.578Z,4.70
2022-10-08T22:28:59.726Z,3.43
2022-10-08T22:31:30.219Z,4.13
2022-10-08T22:33:58.678Z,3.60
2022-10-08T22:36:28.279Z,4.30
2022-10-08T22:38:58.887Z,4.87
2022-10-08T22:41:28.873Z,6.03
2022-10-08T22:43:56.853Z,4.53
2022-10-08T22:46:27.221Z,6.13
2022-10-08T22:49:00.312Z,3.70
2022-10-08T22:51:28.875Z,3.67
2022-10-08T22:53:57.487Z,3.90
2022-10-08T22:56:28.002Z,3.33
2022-10-08T22:58:56.215Z,3.93
2022-10-08T23:01:25.572Z,4.43
2022-10-08T23:03:54.486Z,6.13
2022-10-08T23:06:26.055Z,4.83
2022-10-08T23:08:56.422Z,3.63
2022-10-08T23:11:29.448Z,3.50
2022-10-08T23:13:59.015Z,4.77
2022-10-08T23:16:29.661Z,4.30
2022-10-08T23:18:59.786Z,3.20
2022-10-08T23:21:29.667Z,4.53
2022-10-08T23:23:58.594Z,3.47
2022-10-08T23:26:28.002Z,7.40
2022-10-08T23:28:57.482Z,5.20
2022-10-08T23:31:26.988Z,3.47
2022-10-08T23:33:57.134Z,3.90
2022-10-08T23:36:27.048Z,2.87
2022-10-08T23:38:56.670Z,3.20
2022-10-08T23:41:25.110Z,3.77
2022-10-08T23:43:54.740Z,3.27
2022-10-08T23:46:25.018Z,3.10
2022-10-08T23:48:53.876Z,4.20
2022-10-08T23:51:22.268Z,3.03
2022-10-08T23:53:51.190Z,3.30
2022-10-08T23:56:21.573Z,2.83
2022-10-08T23:58:50.077Z,4.27
